Time;durP1;ratioP1;P1;durP2;ratioP2;P2;SDS_P1;SDS_P2;PMS_P1;PMS_P2;Temp;Humidity;BMP_temperature;BMP_pressure;BME280_temperature;BME280_humidity;BME280_pressure;Samples;Min_cycle;Max_cycle;Signal;HPM_P1;HPM_P2
2022/12/16 00:00:13;;;;;;;31.30;19.30;;;7.00;86.50;;;;;;5055646;28;20064;-70
2022/12/16 00:02:39;;;;;;;32.15;20.15;;;7.00;86.70;;;;;;5055241;28;20051;-70
2022/12/16 00:05:05;;;;;;;28.65;18.88;;;7.00;86.70;;;;;;5055076;28;20029;-69
2022/12/16 00:07:30;;;;;;;27.92;18.40;;;6.90;86.90;;;;;;5055441;28;20028;-69
2022/12/16 00:09:56;;;;;;;31.40;19.58;;;6.90;87.00;;;;;;5055318;28;20463;-69
2022/12/16 00:12:22;;;;;;;32.22;19.15;;;6.80;87.30;;;;;;5053419;28;20037;-70
2022/12/16 00:14:47;;;;;;;29.08;19.52;;;6.90;87.10;;;;;;5055257;28;20029;-69
2022/12/16 00:17:13;;;;;;;29.08;19.05;;;6.90;86.90;;;;;;5055124;28;20505;-70
2022/12/16 00:19:38;;;;;;;29.20;19.13;;;6.90;87.40;;;;;;5054983;28;20429;-70
2022/12/16 00:22:04;;;;;;;27.92;20.25;;;6.90;87.30;;;;;;5054988;28;20035;-70
2022/12/16 00:24:30;;;;;;;24.92;17.83;;;6.90;87.20;;;;;;5055095;28;20032;-70
2022/12/16 00:26:56;;;;;;;29.70;19.75;;;6.90;87.40;;;;;;5054857;28;20028;-70
2022/12/16 00:29:21;;;;;;;25.58;19.40;;;7.00;87.40;;;;;;5054586;28;20029;-70
2022/12/16 00:31:47;;;;;;;26.42;18.95;;;6.80;87.50;;;;;;5055103;28;20067;-70
2022/12/16 00:34:13;;;;;;;24.92;19.38;;;6.90;87.40;;;;;;5054576;28;20584;-70
2022/12/16 00:36:39;;;;;;;27.70;17.98;;;6.80;87.60;;;;;;5054237;28;20100;-70
2022/12/16 00:39:05;;;;;;;23.77;18.35;;;6.80;87.50;;;;;;5054734;28;20151;-70
2022/12/16 00:41:30;;;;;;;25.13;17.98;;;6.90;87.50;;;;;;5052389;28;20036;-70
2022/12/16 00:43:56;;;;;;;24.73;17.25;;;6.90;87.50;;;;;;5054366;28;20068;-70
2022/12/16 00:46:21;;;;;;;27.30;18.00;;;6.90;87.90;;;;;;5054649;28;20021;-70
2022/12/16 00:48:47;;;;;;;27.63;18.75;;;6.80;88.10;;;;;;5054530;28;20367;-70
2022/12/16 00:51:12;;;;;;;24.30;17.67;;;6.80;88.10;;;;;;5054387;28;20032;-70
2022/12/16 00:53:38;;;;;;;23.80;17.67;;;6.80;88.10;;;;;;5053156;28;20021;-70
2022/12/16 00:56:07;;;;;;;27.60;18.60;;;6.80;88.10;;;;;;5054438;28;20029;-70
2022/12/16 00:58:32;;;;;;;23.63;17.35;;;6.80;88.40;;;;;;5054307;28;20112;-70
2022/12/16 01:00:58;;;;;;;27.33;19.15;;;6.70;88.40;;;;;;5054395;28;20090;-70
2022/12/16 01:03:24;;;;;;;23.23;17.83;;;6.90;88.20;;;;;;5053958;28;20044;-70
2022/12/16 01:05:49;;;;;;;26.60;17.83;;;6.80;88.40;;;;;;5053407;28;20029;-70
2022/12/16 01:08:15;;;;;;;23.08;18.42;;;6.80;88.30;;;;;;5054220;28;20440;-69
2022/12/16 01:10:40;;;;;;;25.05;18.50;;;6.80;88.00;;;;;;5053801;28;20017;-70
2022/12/16 01:13:06;;;;;;;25.10;17.48;;;6.80;87.80;;;;;;5054169;28;20040;-69
2022/12/16 01:15:32;;;;;;;25.27;17.27;;;6.80;87.70;;;;;;5053850;28;20060;-69
2022/12/16 01:17:57;;;;;;;26.67;18.67;;;6.70;87.90;;;;;;5054063;28;20032;-70
2022/12/16 01:20:23;;;;;;;27.35;17.42;;;6.80;87.80;;;;;;5053890;28;20027;-69
2022/12/16 01:22:48;;;;;;;26.92;17.55;;;6.70;87.90;;;;;;5052661;28;20116;-70
2022/12/16 01:25:14;;;;;;;26.33;18.08;;;6.70;87.90;;;;;;5053328;28;20052;-69
2022/12/16 01:27:40;;;;;;;26.80;17.52;;;6.70;87.90;;;;;;5053780;28;20025;-70
2022/12/16 01:30:07;;;;;;;25.52;16.98;;;6.70;87.90;;;;;;5053782;28;20021;-69
2022/12/16 01:32:33;;;;;;;21.48;16.02;;;6.70;88.00;;;;;;5053700;28;20017;-70
2022/12/16 01:34:59;;;;;;;24.65;15.82;;;6.70;87.90;;;;;;5053564;28;20163;-70
2022/12/16 01:37:24;;;;;;;18.85;16.00;;;6.60;87.80;;;;;;5053831;28;20021;-70
2022/12/16 01:39:50;;;;;;;20.02;14.80;;;6.60;88.00;;;;;;5053302;28;20478;-70
2022/12/16 01:42:20;;;;;;;20.35;14.70;;;6.50;87.80;;;;;;5053313;28;20585;-70
2022/12/16 01:44:48;;;;;;;17.80;13.57;;;6.50;88.10;;;;;;5053418;28;20627;-69
2022/12/16 01:47:22;;;;;;;20.90;12.75;;;6.60;88.50;;;;;;5053355;28;20044;-70
2022/12/16 01:50:10;;;;;;;15.48;9.07;;;6.50;89.10;;;;;;5053255;28;20035;-70
2022/12/16 01:52:42;;;;;;;12.65;7.78;;;6.50;90.30;;;;;;5053655;28;20540;-69
2022/12/16 01:55:40;;;;;;;13.05;7.70;;;6.60;90.40;;;;;;5053022;28;20048;-70
2022/12/16 01:58:16;;;;;;;11.10;5.35;;;6.70;90.60;;;;;;5053374;28;20029;-70
2022/12/16 02:00:41;;;;;;;8.32;5.00;;;6.70;90.80;;;;;;5052169;28;20116;-69
2022/12/16 02:03:09;;;;;;;9.15;4.47;;;6.60;91.20;;;;;;5053155;28;20549;-69
2022/12/16 02:05:38;;;;;;;8.95;3.58;;;6.80;91.10;;;;;;5053237;28;20017;-69
2022/12/16 02:08:12;;;;;;;8.20;4.20;;;6.90;91.20;;;;;;5053251;28;20089;-69
2022/12/16 02:10:43;;;;;;;7.07;3.42;;;6.90;91.10;;;;;;5052941;28;20013;-70
2022/12/16 02:13:31;;;;;;;10.70;3.63;;;7.00;91.00;;;;;;5051589;28;20036;-69
2022/12/16 02:16:14;;;;;;;4.90;2.53;;;6.80;91.30;;;;;;5052957;28;20036;-71
2022/12/16 02:19:00;;;;;;;4.20;2.40;;;6.80;91.30;;;;;;5053124;28;20472;-69
2022/12/16 02:21:47;;;;;;;8.75;2.92;;;6.90;91.40;;;;;;5052991;28;20359;-69
2022/12/16 02:24:45;;;;;;;8.95;2.97;;;7.00;91.20;;;;;;5052417;28;20394;-69
2022/12/16 02:27:26;;;;;;;6.90;2.45;;;7.00;91.10;;;;;;5053056;28;20025;-70
2022/12/16 02:30:04;;;;;;;7.88;2.60;;;7.00;91.20;;;;;;5053002;28;20028;-70
2022/12/16 02:32:55;;;;;;;6.63;2.80;;;6.90;91.20;;;;;;5051602;28;20029;-70
2022/12/16 02:35:43;;;;;;;8.15;2.38;;;7.00;91.20;;;;;;5052846;28;20029;-69
2022/12/16 02:38:16;;;;;;;6.53;2.58;;;6.90;91.30;;;;;;5051097;28;20044;-70
2022/12/16 02:40:56;;;;;;;8.70;3.10;;;7.00;91.30;;;;;;5052723;28;20111;-69
2022/12/16 02:43:40;;;;;;;5.82;2.60;;;6.90;91.40;;;;;;5052731;28;20144;-69
2022/12/16 02:46:07;;;;;;;5.78;2.33;;;6.90;91.40;;;;;;5052551;28;20025;-70
2022/12/16 02:48:33;;;;;;;5.75;2.72;;;7.00;91.40;;;;;;5052721;28;20031;-69
2022/12/16 02:50:59;;;;;;;7.43;2.50;;;7.00;91.30;;;;;;5052715;28;20096;-70
2022/12/16 02:53:24;;;;;;;7.88;3.22;;;7.10;91.40;;;;;;5052204;28;20025;-69
2022/12/16 02:56:26;;;;;;;5.25;2.70;;;7.10;91.40;;;;;;5052524;28;20018;-69
2022/12/16 02:59:23;;;;;;;7.55;3.22;;;7.10;91.60;;;;;;5044476;28;20115;-69
2022/12/16 03:02:24;;;;;;;8.20;2.72;;;7.10;91.40;;;;;;5056508;28;20017;-70
2022/12/16 03:04:57;;;;;;;8.38;3.17;;;7.10;91.30;;;;;;5048064;28;20044;-70
2022/12/16 03:07:25;;;;;;;6.43;2.85;;;7.10;91.10;;;;;;5056081;28;20017;-70
2022/12/16 03:09:53;;;;;;;9.60;2.95;;;7.10;91.20;;;;;;5056603;28;20478;-70
2022/12/16 03:12:23;;;;;;;5.40;2.83;;;7.20;91.20;;;;;;5054800;28;20111;-70
2022/12/16 03:14:51;;;;;;;4.85;2.60;;;7.10;91.00;;;;;;5054729;28;20033;-70
2022/12/16 03:17:18;;;;;;;4.47;2.45;;;7.00;91.00;;;;;;5056507;28;20017;-70
2022/12/16 03:19:53;;;;;;;8.55;3.58;;;7.00;91.10;;;;;;5056341;28;20029;-70
2022/12/16 03:22:28;;;;;;;7.40;2.90;;;6.90;91.00;;;;;;5055854;28;20025;-70
2022/12/16 03:24:54;;;;;;;5.85;3.30;;;6.80;91.20;;;;;;5056110;28;20025;-70
2022/12/16 03:27:26;;;;;;;9.27;3.15;;;6.90;91.50;;;;;;5055963;28;20013;-70
2022/12/16 03:29:52;;;;;;;;;;;6.90;91.10;;;;;;5055150;28;20017;-70
2022/12/16 03:32:33;;;;;;;4.70;3.53;;;6.90;91.10;;;;;;5055878;28;20003;-70
2022/12/16 03:35:12;;;;;;;5.07;3.33;;;7.00;91.10;;;;;;5055136;28;20027;-70
2022/12/16 03:37:41;;;;;;;6.57;4.10;;;7.00;91.10;;;;;;5055498;28;20017;-70
2022/12/16 03:40:08;;;;;;;5.75;3.90;;;6.90;91.20;;;;;;5055897;28;20017;-70
2022/12/16 03:42:36;;;;;;;8.50;4.20;;;6.90;91.30;;;;;;5054327;28;20044;-70
2022/12/16 03:45:03;;;;;;;6.47;4.18;;;6.90;91.30;;;;;;5055708;28;20036;-70
2022/12/16 03:47:29;;;;;;;6.63;3.60;;;6.90;91.60;;;;;;5055751;28;20393;-70
2022/12/16 03:49:55;;;;;;;5.68;4.25;;;7.00;91.50;;;;;;5054351;28;20056;-70
2022/12/16 03:52:20;;;;;;;8.30;4.70;;;7.00;91.70;;;;;;5055347;28;20025;-70
2022/12/16 03:54:46;;;;;;;6.97;4.15;;;7.00;91.80;;;;;;5055676;28;20082;-70
2022/12/16 03:57:12;;;;;;;8.32;4.38;;;7.10;91.80;;;;;;5055872;28;20029;-70
2022/12/16 03:59:38;;;;;;;6.28;4.20;;;7.10;91.80;;;;;;5055428;28;20486;-70
2022/12/16 04:02:03;;;;;;;6.97;4.40;;;7.10;91.70;;;;;;5038977;28;20049;-70
2022/12/16 04:04:29;;;;;;;10.38;5.10;;;7.00;91.90;;;;;;5034930;28;20044;-70
2022/12/16 04:09:39;;;;;;;8.18;4.35;;;7.00;91.90;;;;;;5035484;28;20064;-70
2022/12/16 04:25:47;;;;;;;7.78;5.05;;;7.00;91.20;;;;;;5035717;28;20032;-69
2022/12/16 04:28:12;;;;;;;8.90;4.55;;;7.00;91.20;;;;;;5034758;28;20116;-69
2022/12/16 04:30:38;;;;;;;8.15;4.95;;;6.90;91.20;;;;;;5035012;28;20060;-70
